sensor_id;sensor_type;location;lat;lon;timestamp;temperature;humidity
59973;DHT22;55298;-36.624;-64.282;2022-08-26T00:00:12;16.70;24.90
59973;DHT22;55298;-36.624;-64.282;2022-08-26T00:02:41;16.60;25.30
59973;DHT22;55298;-36.624;-64.282;2022-08-26T00:05:10;16.50;25.50
59973;DHT22;55298;-36.624;-64.282;2022-08-26T00:07:38;16.50;25.40
59973;DHT22;55298;-36.624;-64.282;2022-08-26T00:10:08;16.40;25.80
59973;DHT22;55298;-36.624;-64.282;2022-08-26T00:12:40;16.30;26.30
59973;DHT22;55298;-36.624;-64.282;2022-08-26T00:15:10;16.20;26.50
59973;DHT22;55298;-36.624;-64.282;2022-08-26T00:17:38;16.20;25.80
59973;DHT22;55298;-36.624;-64.282;2022-08-26T00:20:07;16.20;26.10
59973;DHT22;55298;-36.624;-64.282;2022-08-26T00:22:36;16.00;26.10
59973;DHT22;55298;-36.624;-64.282;2022-08-26T00:25:06;15.90;26.10
59973;DHT22;55298;-36.624;-64.282;2022-08-26T00:27:34;15.80;26.60
59973;DHT22;55298;-36.624;-64.282;2022-08-26T00:30:06;15.70;26.90
59973;DHT22;55298;-36.624;-64.282;2022-08-26T00:32:35;15.70;26.70
59973;DHT22;55298;-36.624;-64.282;2022-08-26T00:35:04;15.70;26.70
59973;DHT22;55298;-36.624;-64.282;2022-08-26T00:37:34;15.70;25.90
59973;DHT22;55298;-36.624;-64.282;2022-08-26T00:40:05;15.70;25.80
59973;DHT22;55298;-36.624;-64.282;2022-08-26T00:42:34;15.70;26.50
59973;DHT22;55298;-36.624;-64.282;2022-08-26T00:45:04;15.70;26.40
59973;DHT22;55298;-36.624;-64.282;2022-08-26T00:47:36;15.60;26.90
59973;DHT22;55298;-36.624;-64.282;2022-08-26T00:50:10;15.40;27.00
59973;DHT22;55298;-36.624;-64.282;2022-08-26T00:52:39;15.40;27.30
59973;DHT22;55298;-36.624;-64.282;2022-08-26T00:55:19;15.40;27.80
59973;DHT22;55298;-36.624;-64.282;2022-08-26T00:57:49;15.40;26.50
59973;DHT22;55298;-36.624;-64.282;2022-08-26T01:00:23;15.30;27.10
59973;DHT22;55298;-36.624;-64.282;2022-08-26T01:02:55;15.20;26.70
59973;DHT22;55298;-36.624;-64.282;2022-08-26T01:05:24;15.20;27.20
59973;DHT22;55298;-36.624;-64.282;2022-08-26T01:07:53;15.00;27.30
59973;DHT22;55298;-36.624;-64.282;2022-08-26T01:10:23;15.00;27.40
59973;DHT22;55298;-36.624;-64.282;2022-08-26T01:13:00;15.10;27.30
59973;DHT22;55298;-36.624;-64.282;2022-08-26T01:15:34;15.00;26.60
59973;DHT22;55298;-36.624;-64.282;2022-08-26T01:18:05;15.00;26.10
59973;DHT22;55298;-36.624;-64.282;2022-08-26T01:20:51;15.00;26.20
59973;DHT22;55298;-36.624;-64.282;2022-08-26T01:23:21;15.10;26.40
59973;DHT22;55298;-36.624;-64.282;2022-08-26T01:25:55;15.10;26.50
59973;DHT22;55298;-36.624;-64.282;2022-08-26T01:28:26;14.90;27.40
59973;DHT22;55298;-36.624;-64.282;2022-08-26T01:30:57;14.80;27.30
59973;DHT22;55298;-36.624;-64.282;2022-08-26T01:33:56;14.70;27.10
59973;DHT22;55298;-36.624;-64.282;2022-08-26T01:36:28;14.60;27.80
59973;DHT22;55298;-36.624;-64.282;2022-08-26T01:38:56;14.60;27.40
59973;DHT22;55298;-36.624;-64.282;2022-08-26T01:41:24;14.60;28.00
59973;DHT22;55298;-36.624;-64.282;2022-08-26T01:43:54;14.40;28.30
59973;DHT22;55298;-36.624;-64.282;2022-08-26T01:46:25;14.30;28.40
59973;DHT22;55298;-36.624;-64.282;2022-08-26T01:48:58;14.30;28.50
59973;DHT22;55298;-36.624;-64.282;2022-08-26T01:51:28;14.30;28.20
59973;DHT22;55298;-36.624;-64.282;2022-08-26T01:53:57;14.10;29.30
59973;DHT22;55298;-36.624;-64.282;2022-08-26T01:56:26;14.10;29.60
59973;DHT22;55298;-36.624;-64.282;2022-08-26T01:58:58;14.00;29.70
59973;DHT22;55298;-36.624;-64.282;2022-08-26T02:01:28;13.90;29.70
59973;DHT22;55298;-36.624;-64.282;2022-08-26T02:06:49;14.00;30.80
59973;DHT22;55298;-36.624;-64.282;2022-08-26T02:09:18;13.80;31.10
59973;DHT22;55298;-36.624;-64.282;2022-08-26T02:11:47;13.70;30.80
59973;DHT22;55298;-36.624;-64.282;2022-08-26T02:14:20;13.80;30.60
59973;DHT22;55298;-36.624;-64.282;2022-08-26T02:17:00;13.70;30.60
59973;DHT22;55298;-36.624;-64.282;2022-08-26T02:19:32;13.70;31.10
59973;DHT22;55298;-36.624;-64.282;2022-08-26T02:22:04;13.50;31.60
59973;DHT22;55298;-36.624;-64.282;2022-08-26T02:27:28;13.50;32.70
59973;DHT22;55298;-36.624;-64.282;2022-08-26T02:30:14;13.50;33.20
59973;DHT22;55298;-36.624;-64.282;2022-08-26T02:32:43;13.40;33.60
59973;DHT22;55298;-36.624;-64.282;2022-08-26T02:35:16;13.40;33.80
59973;DHT22;55298;-36.624;-64.282;2022-08-26T02:37:48;12.40;32.80
59973;DHT22;55298;-36.624;-64.282;2022-08-26T02:40:20;13.20;33.50
59973;DHT22;55298;-36.624;-64.282;2022-08-26T02:42:49;13.00;35.00
59973;DHT22;55298;-36.624;-64.282;2022-08-26T02:45:18;13.10;35.60
59973;DHT22;55298;-36.624;-64.282;2022-08-26T02:47:47;13.00;37.20
59973;DHT22;55298;-36.624;-64.282;2022-08-26T02:50:18;13.00;36.60
59973;DHT22;55298;-36.624;-64.282;2022-08-26T02:52:51;12.90;37.60
59973;DHT22;55298;-36.624;-64.282;2022-08-26T02:55:19;12.90;37.10
59973;DHT22;55298;-36.624;-64.282;2022-08-26T02:57:48;12.90;38.40
59973;DHT22;55298;-36.624;-64.282;2022-08-26T03:00:18;12.80;38.20
59973;DHT22;55298;-36.624;-64.282;2022-08-26T03:02:46;12.60;38.50
59973;DHT22;55298;-36.624;-64.282;2022-08-26T03:05:14;12.70;38.30
59973;DHT22;55298;-36.624;-64.282;2022-08-26T03:07:45;12.70;38.60
59973;DHT22;55298;-36.624;-64.282;2022-08-26T03:10:13;12.60;38.90
59973;DHT22;55298;-36.624;-64.282;2022-08-26T03:12:44;12.60;39.60
59973;DHT22;55298;-36.624;-64.282;2022-08-26T03:15:14;12.60;39.70
59973;DHT22;55298;-36.624;-64.282;2022-08-26T03:17:45;12.60;39.10
59973;DHT22;55298;-36.624;-64.282;2022-08-26T03:20:15;12.70;40.10
59973;DHT22;55298;-36.624;-64.282;2022-08-26T03:22:46;12.80;40.80
59973;DHT22;55298;-36.624;-64.282;2022-08-26T03:25:15;12.80;42.10
59973;DHT22;55298;-36.624;-64.282;2022-08-26T03:27:44;12.70;44.60
59973;DHT22;55298;-36.624;-64.282;2022-08-26T03:30:13;12.70;45.70
59973;DHT22;55298;-36.624;-64.282;2022-08-26T03:32:53;12.70;45.70
59973;DHT22;55298;-36.624;-64.282;2022-08-26T03:35:30;12.40;46.20
59973;DHT22;55298;-36.624;-64.282;2022-08-26T03:37:58;12.60;47.20
59973;DHT22;55298;-36.624;-64.282;2022-08-26T03:40:32;13.80;48.50
59973;DHT22;55298;-36.624;-64.282;2022-08-26T03:43:01;12.30;48.20
59973;DHT22;55298;-36.624;-64.282;2022-08-26T03:45:32;12.10;48.50
59973;DHT22;55298;-36.624;-64.282;2022-08-26T03:48:01;11.10;47.80
59973;DHT22;55298;-36.624;-64.282;2022-08-26T03:50:30;12.10;47.30
59973;DHT22;55298;-36.624;-64.282;2022-08-26T03:52:58;11.90;48.40
59973;DHT22;55298;-36.624;-64.282;2022-08-26T03:55:31;11.90;48.90
59973;DHT22;55298;-36.624;-64.282;2022-08-26T03:58:03;11.80;49.50
59973;DHT22;55298;-36.624;-64.282;2022-08-26T04:00:32;11.80;49.40
59973;DHT22;55298;-36.624;-64.282;2022-08-26T04:02:59;11.70;49.10
59973;DHT22;55298;-36.624;-64.282;2022-08-26T04:05:29;13.00;49.50
59973;DHT22;55298;-36.624;-64.282;2022-08-26T04:07:57;11.60;48.30
59973;DHT22;55298;-36.624;-64.282;2022-08-26T04:10:26;11.60;48.50
59973;DHT22;55298;-36.624;-64.282;2022-08-26T04:12:53;11.60;48.90
59973;DHT22;55298;-36.624;-64.282;2022-08-26T04:15:21;11.60;49.20
59973;DHT22;55298;-36.624;-64.282;2022-08-26T04:17:50;11.40;48.70
59973;DHT22;55298;-36.624;-64.282;2022-08-26T04:20:22;11.30;49.20
59973;DHT22;55298;-36.624;-64.282;2022-08-26T04:22:51;11.30;49.40
59973;DHT22;55298;-36.624;-64.282;2022-08-26T04:25:20;11.40;49.70
59973;DHT22;55298;-36.624;-64.282;2022-08-26T04:27:50;12.50;50.20
59973;DHT22;55298;-36.624;-64.282;2022-08-26T04:30:19;11.10;49.80
59973;DHT22;55298;-36.624;-64.282;2022-08-26T04:32:48;11.00;50.30
59973;DHT22;55298;-36.624;-64.282;2022-08-26T04:35:17;12.40;50.80
59973;DHT22;55298;-36.624;-64.282;2022-08-26T04:37:45;11.00;49.70
59973;DHT22;55298;-36.624;-64.282;2022-08-26T04:40:14;11.00;50.00
59973;DHT22;55298;-36.624;-64.282;2022-08-26T04:42:42;10.90;50.00
59973;DHT22;55298;-36.624;-64.282;2022-08-26T04:45:11;11.00;48.80
59973;DHT22;55298;-36.624;-64.282;2022-08-26T04:47:41;10.90;49.20
59973;DHT22;55298;-36.624;-64.282;2022-08-26T04:50:10;11.00;49.60
59973;DHT22;55298;-36.624;-64.282;2022-08-26T04:52:38;11.00;50.00
59973;DHT22;55298;-36.624;-64.282;2022-08-26T04:55:09;11.00;50.20
59973;DHT22;55298;-36.624;-64.282;2022-08-26T04:57:37;11.10;50.30
59973;DHT22;55298;-36.624;-64.282;2022-08-26T05:00:08;11.00;51.00
59973;DHT22;55298;-36.624;-64.282;2022-08-26T05:02:39;10.90;51.50
59973;DHT22;55298;-36.624;-64.282;2022-08-26T05:05:11;10.80;52.10
59973;DHT22;55298;-36.624;-64.282;2022-08-26T05:07:41;10.80;52.00
59973;DHT22;55298;-36.624;-64.282;2022-08-26T05:10:13;10.90;51.70
59973;DHT22;55298;-36.624;-64.282;2022-08-26T05:12:51;10.80;52.20
59973;DHT22;55298;-36.624;-64.282;2022-08-26T05:15:26;11.00;52.20
59973;DHT22;55298;-36.624;-64.282;2022-08-26T05:20:25;10.80;51.30
59973;DHT22;55298;-36.624;-64.282;2022-08-26T05:22:59;10.70;52.50
59973;DHT22;55298;-36.624;-64.282;2022-08-26T05:25:31;10.60;52.60
59973;DHT22;55298;-36.624;-64.282;2022-08-26T05:28:00;10.50;53.10
59973;DHT22;55298;-36.624;-64.282;2022-08-26T05:30:29;10.50;52.90
59973;DHT22;55298;-36.624;-64.282;2022-08-26T05:32:58;10.40;53.30
59973;DHT22;55298;-36.624;-64.282;2022-08-26T05:35:28;10.40;53.50
59973;DHT22;55298;-36.624;-64.282;2022-08-26T05:38:00;10.40;54.00
59973;DHT22;55298;-36.624;-64.282;2022-08-26T05:40:34;10.40;54.50
59973;DHT22;55298;-36.624;-64.282;2022-08-26T05:43:04;10.30;54.00
59973;DHT22;55298;-36.624;-64.282;2022-08-26T05:45:36;10.40;53.80
59973;DHT22;55298;-36.624;-64.282;2022-08-26T05:48:06;10.20;51.70
59973;DHT22;55298;-36.624;-64.282;2022-08-26T05:50:39;11.30;52.60
59973;DHT22;55298;-36.624;-64.282;2022-08-26T05:53:10;10.20;51.30
59973;DHT22;55298;-36.624;-64.282;2022-08-26T05:55:44;10.10;50.00
59973;DHT22;55298;-36.624;-64.282;2022-08-26T05:58:13;10.00;50.20
59973;DHT22;55298;-36.624;-64.282;2022-08-26T06:00:41;10.00;50.70
59973;DHT22;55298;-36.624;-64.282;2022-08-26T06:03:10;9.90;50.50
59973;DHT22;55298;-36.624;-64.282;2022-08-26T06:05:39;9.80;50.60
59973;DHT22;55298;-36.624;-64.282;2022-08-26T06:08:18;9.70;50.80
59973;DHT22;55298;-36.624;-64.282;2022-08-26T06:10:58;9.70;50.80
59973;DHT22;55298;-36.624;-64.282;2022-08-26T06:13:30;9.70;51.20
59973;DHT22;55298;-36.624;-64.282;2022-08-26T06:16:03;9.60;51.20
59973;DHT22;55298;-36.624;-64.282;2022-08-26T06:18:33;9.50;50.40
59973;DHT22;55298;-36.624;-64.282;2022-08-26T06:21:22;9.70;49.00
59973;DHT22;55298;-36.624;-64.282;2022-08-26T06:23:51;9.70;49.40
59973;DHT22;55298;-36.624;-64.282;2022-08-26T06:26:31;9.80;48.90
59973;DHT22;55298;-36.624;-64.282;2022-08-26T06:28:59;9.70;49.70
59973;DHT22;55298;-36.624;-64.282;2022-08-26T06:31:30;9.60;49.30
59973;DHT22;55298;-36.624;-64.282;2022-08-26T06:33:57;9.50;49.60
59973;DHT22;55298;-36.624;-64.282;2022-08-26T06:36:28;9.50;49.60
59973;DHT22;55298;-36.624;-64.282;2022-08-26T06:39:02;9.50;49.10
59973;DHT22;55298;-36.624;-64.282;2022-08-26T06:41:31;10.20;49.80
59973;DHT22;55298;-36.624;-64.282;2022-08-26T06:44:00;9.60;48.10
59973;DHT22;55298;-36.624;-64.282;2022-08-26T06:46:29;9.60;47.70
59973;DHT22;55298;-36.624;-64.282;2022-08-26T06:48:57;9.50;46.40
59973;DHT22;55298;-36.624;-64.282;2022-08-26T06:51:29;9.60;46.70
59973;DHT22;55298;-36.624;-64.282;2022-08-26T06:53:59;9.40;47.10
59973;DHT22;55298;-36.624;-64.282;2022-08-26T06:56:34;9.50;46.70
59973;DHT22;55298;-36.624;-64.282;2022-08-26T06:59:04;9.50;47.20
59973;DHT22;55298;-36.624;-64.282;2022-08-26T07:01:34;9.50;48.80
59973;DHT22;55298;-36.624;-64.282;2022-08-26T07:06:36;9.50;50.60
59973;DHT22;55298;-36.624;-64.282;2022-08-26T07:09:07;9.40;51.60
59973;DHT22;55298;-36.624;-64.282;2022-08-26T07:11:38;9.30;49.10
59973;DHT22;55298;-36.624;-64.282;2022-08-26T07:14:07;9.80;49.80
59973;DHT22;55298;-36.624;-64.282;2022-08-26T07:16:35;9.30;47.30
59973;DHT22;55298;-36.624;-64.282;2022-08-26T07:19:04;9.20;48.50
59973;DHT22;55298;-36.624;-64.282;2022-08-26T07:21:32;9.10;49.10
59973;DHT22;55298;-36.624;-64.282;2022-08-26T07:23:59;9.00;51.10
59973;DHT22;55298;-36.624;-64.282;2022-08-26T07:26:28;9.20;51.70
59973;DHT22;55298;-36.624;-64.282;2022-08-26T07:28:58;8.90;54.10
59973;DHT22;55298;-36.624;-64.282;2022-08-26T07:31:28;8.80;56.20
59973;DHT22;55298;-36.624;-64.282;2022-08-26T07:33:59;8.70;57.70
59973;DHT22;55298;-36.624;-64.282;2022-08-26T07:36:30;8.80;56.30
59973;DHT22;55298;-36.624;-64.282;2022-08-26T07:38:59;8.80;57.20
59973;DHT22;55298;-36.624;-64.282;2022-08-26T07:41:27;8.70;56.80
59973;DHT22;55298;-36.624;-64.282;2022-08-26T07:43:56;8.80;57.30
59973;DHT22;55298;-36.624;-64.282;2022-08-26T07:46:23;8.80;56.70
59973;DHT22;55298;-36.624;-64.282;2022-08-26T07:48:52;8.70;57.40
59973;DHT22;55298;-36.624;-64.282;2022-08-26T07:51:21;8.70;57.90
59973;DHT22;55298;-36.624;-64.282;2022-08-26T07:53:49;8.70;56.70
59973;DHT22;55298;-36.624;-64.282;2022-08-26T07:56:19;8.70;56.00
59973;DHT22;55298;-36.624;-64.282;2022-08-26T07:58:48;8.60;56.30
59973;DHT22;55298;-36.624;-64.282;2022-08-26T08:01:15;8.70;55.60
59973;DHT22;55298;-36.624;-64.282;2022-08-26T08:03:44;8.80;55.10
59973;DHT22;55298;-36.624;-64.282;2022-08-26T08:06:19;8.80;54.50
59973;DHT22;55298;-36.624;-64.282;2022-08-26T08:08:51;9.00;52.10
59973;DHT22;55298;-36.624;-64.282;2022-08-26T08:11:19;8.80;51.30
59973;DHT22;55298;-36.624;-64.282;2022-08-26T08:13:49;8.70;51.60
59973;DHT22;55298;-36.624;-64.282;2022-08-26T08:16:18;9.20;51.90
59973;DHT22;55298;-36.624;-64.282;2022-08-26T08:18:47;8.60;50.90
59973;DHT22;55298;-36.624;-64.282;2022-08-26T08:21:16;9.30;51.60
59973;DHT22;55298;-36.624;-64.282;2022-08-26T08:23:44;8.40;51.90
59973;DHT22;55298;-36.624;-64.282;2022-08-26T08:26:13;8.30;52.30
59973;DHT22;55298;-36.624;-64.282;2022-08-26T08:31:19;8.70;51.90
59973;DHT22;55298;-36.624;-64.282;2022-08-26T08:36:15;8.60;52.40
59973;DHT22;55298;-36.624;-64.282;2022-08-26T08:38:43;8.80;52.30
59973;DHT22;55298;-36.624;-64.282;2022-08-26T08:41:23;8.70;52.00
59973;DHT22;55298;-36.624;-64.282;2022-08-26T08:43:55;8.90;51.90
59973;DHT22;55298;-36.624;-64.282;2022-08-26T08:46:26;7.40;51.10
59973;DHT22;55298;-36.624;-64.282;2022-08-26T08:48:57;9.20;50.10
59973;DHT22;55298;-36.624;-64.282;2022-08-26T08:51:47;9.20;49.80
59973;DHT22;55298;-36.624;-64.282;2022-08-26T08:54:17;9.20;50.60
59973;DHT22;55298;-36.624;-64.282;2022-08-26T08:56:54;9.30;49.40
59973;DHT22;55298;-36.624;-64.282;2022-08-26T08:59:31;9.30;50.20
59973;DHT22;55298;-36.624;-64.282;2022-08-26T09:02:23;10.00;51.40
59973;DHT22;55298;-36.624;-64.282;2022-08-26T09:05:04;8.80;52.70
59973;DHT22;55298;-36.624;-64.282;2022-08-26T09:07:47;8.70;52.80
59973;DHT22;55298;-36.624;-64.282;2022-08-26T09:13:16;9.20;54.40
59973;DHT22;55298;-36.624;-64.282;2022-08-26T09:19:08;8.50;53.90
59973;DHT22;55298;-36.624;-64.282;2022-08-26T09:21:44;8.40;55.10
59973;DHT22;55298;-36.624;-64.282;2022-08-26T09:24:14;8.50;56.00
59973;DHT22;55298;-36.624;-64.282;2022-08-26T09:26:45;8.50;55.90
59973;DHT22;55298;-36.624;-64.282;2022-08-26T09:29:26;8.50;54.90
59973;DHT22;55298;-36.624;-64.282;2022-08-26T09:35:01;8.80;53.80
59973;DHT22;55298;-36.624;-64.282;2022-08-26T09:37:37;9.00;54.00
59973;DHT22;55298;-36.624;-64.282;2022-08-26T09:40:18;8.80;54.80
59973;DHT22;55298;-36.624;-64.282;2022-08-26T09:42:46;9.00;54.50
59973;DHT22;55298;-36.624;-64.282;2022-08-26T09:45:15;9.00;54.30
59973;DHT22;55298;-36.624;-64.282;2022-08-26T09:47:55;9.70;45.40
59973;DHT22;55298;-36.624;-64.282;2022-08-26T09:50:32;9.80;45.50
59973;DHT22;55298;-36.624;-64.282;2022-08-26T09:53:16;10.20;39.90
59973;DHT22;55298;-36.624;-64.282;2022-08-26T09:55:49;10.30;41.30
59973;DHT22;55298;-36.624;-64.282;2022-08-26T09:58:32;10.20;39.70
59973;DHT22;55298;-36.624;-64.282;2022-08-26T10:01:05;10.30;40.20
59973;DHT22;55298;-36.624;-64.282;2022-08-26T10:03:37;10.20;40.10
59973;DHT22;55298;-36.624;-64.282;2022-08-26T10:06:22;10.10;40.00
59973;DHT22;55298;-36.624;-64.282;2022-08-26T10:08:59;10.30;38.50
59973;DHT22;55298;-36.624;-64.282;2022-08-26T10:11:47;10.20;38.10
59973;DHT22;55298;-36.624;-64.282;2022-08-26T10:14:29;10.30;39.60
59973;DHT22;55298;-36.624;-64.282;2022-08-26T10:17:10;10.20;40.30
59973;DHT22;55298;-36.624;-64.282;2022-08-26T10:20:03;9.80;42.90
59973;DHT22;55298;-36.624;-64.282;2022-08-26T10:22:51;9.80;43.40
59973;DHT22;55298;-36.624;-64.282;2022-08-26T10:26:00;9.70;43.70
59973;DHT22;55298;-36.624;-64.282;2022-08-26T10:31:33;9.50;44.60
59973;DHT22;55298;-36.624;-64.282;2022-08-26T10:34:16;9.50;45.10
59973;DHT22;55298;-36.624;-64.282;2022-08-26T10:37:12;9.60;41.90
59973;DHT22;55298;-36.624;-64.282;2022-08-26T10:42:32;9.90;41.60
59973;DHT22;55298;-36.624;-64.282;2022-08-26T10:45:11;10.10;40.10
59973;DHT22;55298;-36.624;-64.282;2022-08-26T10:48:05;10.20;40.10
59973;DHT22;55298;-36.624;-64.282;2022-08-26T10:50:46;10.30;39.10
59973;DHT22;55298;-36.624;-64.282;2022-08-26T10:53:45;10.20;39.50
59973;DHT22;55298;-36.624;-64.282;2022-08-26T10:56:45;10.30;39.40
59973;DHT22;55298;-36.624;-64.282;2022-08-26T10:59:37;10.10;40.50
59973;DHT22;55298;-36.624;-64.282;2022-08-26T11:02:19;10.00;41.30
59973;DHT22;55298;-36.624;-64.282;2022-08-26T11:04:58;9.80;42.20
59973;DHT22;55298;-36.624;-64.282;2022-08-26T11:07:44;9.80;42.90
59973;DHT22;55298;-36.624;-64.282;2022-08-26T11:10:52;9.70;43.10
59973;DHT22;55298;-36.624;-64.282;2022-08-26T11:13:19;9.90;42.80
59973;DHT22;55298;-36.624;-64.282;2022-08-26T11:19:10;9.80;50.70
59973;DHT22;55298;-36.624;-64.282;2022-08-26T11:22:00;9.60;53.20
59973;DHT22;55298;-36.624;-64.282;2022-08-26T11:27:52;9.70;54.40
59973;DHT22;55298;-36.624;-64.282;2022-08-26T11:30:38;10.00;47.90
59973;DHT22;55298;-36.624;-64.282;2022-08-26T11:33:06;10.10;43.90
59973;DHT22;55298;-36.624;-64.282;2022-08-26T11:35:47;10.00;43.60
59973;DHT22;55298;-36.624;-64.282;2022-08-26T11:38:33;10.10;43.80
59973;DHT22;55298;-36.624;-64.282;2022-08-26T11:41:16;10.40;43.00
59973;DHT22;55298;-36.624;-64.282;2022-08-26T11:43:45;10.40;43.70
59973;DHT22;55298;-36.624;-64.282;2022-08-26T11:46:28;10.30;43.40
59973;DHT22;55298;-36.624;-64.282;2022-08-26T11:49:04;10.60;42.40
59973;DHT22;55298;-36.624;-64.282;2022-08-26T11:51:34;10.60;42.90
59973;DHT22;55298;-36.624;-64.282;2022-08-26T11:54:13;10.60;42.60
59973;DHT22;55298;-36.624;-64.282;2022-08-26T11:56:49;11.00;41.40
59973;DHT22;55298;-36.624;-64.282;2022-08-26T11:59:25;11.20;40.60
59973;DHT22;55298;-36.624;-64.282;2022-08-26T12:01:59;11.20;40.20
59973;DHT22;55298;-36.624;-64.282;2022-08-26T12:04:31;11.10;40.40
59973;DHT22;55298;-36.624;-64.282;2022-08-26T12:07:01;11.00;41.00
59973;DHT22;55298;-36.624;-64.282;2022-08-26T12:09:36;11.00;41.80
59973;DHT22;55298;-36.624;-64.282;2022-08-26T12:12:20;11.00;42.20
59973;DHT22;55298;-36.624;-64.282;2022-08-26T12:17:30;11.20;43.10
59973;DHT22;55298;-36.624;-64.282;2022-08-26T12:19:59;11.30;43.90
59973;DHT22;55298;-36.624;-64.282;2022-08-26T12:22:32;11.40;44.80
59973;DHT22;55298;-36.624;-64.282;2022-08-26T12:25:06;11.50;44.80
59973;DHT22;55298;-36.624;-64.282;2022-08-26T12:27:40;11.50;45.30
59973;DHT22;55298;-36.624;-64.282;2022-08-26T12:30:16;11.50;44.60
59973;DHT22;55298;-36.624;-64.282;2022-08-26T12:32:49;11.60;45.20
59973;DHT22;55298;-36.624;-64.282;2022-08-26T12:35:23;11.70;44.30
59973;DHT22;55298;-36.624;-64.282;2022-08-26T12:37:55;11.80;41.20
59973;DHT22;55298;-36.624;-64.282;2022-08-26T12:40:40;11.90;41.70
59973;DHT22;55298;-36.624;-64.282;2022-08-26T12:43:11;12.00;41.70
59973;DHT22;55298;-36.624;-64.282;2022-08-26T12:45:55;12.20;41.50
59973;DHT22;55298;-36.624;-64.282;2022-08-26T12:48:31;12.30;41.30
59973;DHT22;55298;-36.624;-64.282;2022-08-26T12:51:01;12.30;41.10
59973;DHT22;55298;-36.624;-64.282;2022-08-26T12:53:32;12.20;41.10
59973;DHT22;55298;-36.624;-64.282;2022-08-26T12:56:04;12.40;41.20
59973;DHT22;55298;-36.624;-64.282;2022-08-26T12:58:43;12.50;40.70
59973;DHT22;55298;-36.624;-64.282;2022-08-26T13:01:39;12.80;39.80
59973;DHT22;55298;-36.624;-64.282;2022-08-26T13:04:39;12.90;38.40
59973;DHT22;55298;-36.624;-64.282;2022-08-26T13:07:23;13.10;38.00
59973;DHT22;55298;-36.624;-64.282;2022-08-26T13:09:56;13.10;37.20
59973;DHT22;55298;-36.624;-64.282;2022-08-26T13:12:30;13.00;37.50
59973;DHT22;55298;-36.624;-64.282;2022-08-26T13:14:59;13.00;37.90
59973;DHT22;55298;-36.624;-64.282;2022-08-26T13:17:29;13.00;38.10
59973;DHT22;55298;-36.624;-64.282;2022-08-26T13:22:40;12.90;38.40
59973;DHT22;55298;-36.624;-64.282;2022-08-26T13:25:08;12.90;38.30
59973;DHT22;55298;-36.624;-64.282;2022-08-26T13:27:37;12.90;38.40
59973;DHT22;55298;-36.624;-64.282;2022-08-26T13:30:04;12.90;38.50
59973;DHT22;55298;-36.624;-64.282;2022-08-26T13:32:34;13.10;38.70
59973;DHT22;55298;-36.624;-64.282;2022-08-26T13:35:05;13.00;37.90
59973;DHT22;55298;-36.624;-64.282;2022-08-26T13:37:36;12.90;38.60
59973;DHT22;55298;-36.624;-64.282;2022-08-26T13:40:32;13.20;38.30
59973;DHT22;55298;-36.624;-64.282;2022-08-26T13:42:59;13.10;38.40
59973;DHT22;55298;-36.624;-64.282;2022-08-26T13:45:27;13.00;38.80
59973;DHT22;55298;-36.624;-64.282;2022-08-26T13:47:57;13.10;38.80
59973;DHT22;55298;-36.624;-64.282;2022-08-26T13:50:45;13.10;39.00
59973;DHT22;55298;-36.624;-64.282;2022-08-26T13:53:18;13.30;39.30
59973;DHT22;55298;-36.624;-64.282;2022-08-26T13:56:10;13.20;39.20
59973;DHT22;55298;-36.624;-64.282;2022-08-26T13:58:39;13.40;39.00
59973;DHT22;55298;-36.624;-64.282;2022-08-26T14:01:09;13.40;39.30
59973;DHT22;55298;-36.624;-64.282;2022-08-26T14:03:37;13.40;39.50
59973;DHT22;55298;-36.624;-64.282;2022-08-26T14:06:08;13.30;39.40
59973;DHT22;55298;-36.624;-64.282;2022-08-26T14:08:37;13.60;39.10
59973;DHT22;55298;-36.624;-64.282;2022-08-26T14:11:07;13.50;39.00
59973;DHT22;55298;-36.624;-64.282;2022-08-26T14:13:35;13.40;39.00
59973;DHT22;55298;-36.624;-64.282;2022-08-26T14:16:08;13.50;39.10
59973;DHT22;55298;-36.624;-64.282;2022-08-26T14:18:39;13.90;38.70
59973;DHT22;55298;-36.624;-64.282;2022-08-26T14:21:12;14.20;38.50
59973;DHT22;55298;-36.624;-64.282;2022-08-26T14:23:41;14.10;38.10
59973;DHT22;55298;-36.624;-64.282;2022-08-26T14:26:09;14.10;38.20
59973;DHT22;55298;-36.624;-64.282;2022-08-26T14:29:03;14.00;38.20
59973;DHT22;55298;-36.624;-64.282;2022-08-26T14:32:05;14.00;38.30
59973;DHT22;55298;-36.624;-64.282;2022-08-26T14:34:41;14.00;38.80
59973;DHT22;55298;-36.624;-64.282;2022-08-26T14:37:14;13.80;40.20
59973;DHT22;55298;-36.624;-64.282;2022-08-26T14:39:49;13.80;40.30
59973;DHT22;55298;-36.624;-64.282;2022-08-26T14:42:42;14.00;39.70
59973;DHT22;55298;-36.624;-64.282;2022-08-26T14:45:16;14.20;40.50
59973;DHT22;55298;-36.624;-64.282;2022-08-26T14:47:45;14.30;40.00
59973;DHT22;55298;-36.624;-64.282;2022-08-26T14:50:19;14.50;40.10
59973;DHT22;55298;-36.624;-64.282;2022-08-26T14:52:50;14.70;39.00
59973;DHT22;55298;-36.624;-64.282;2022-08-26T14:55:37;14.80;38.40
59973;DHT22;55298;-36.624;-64.282;2022-08-26T15:00:51;15.40;37.20
59973;DHT22;55298;-36.624;-64.282;2022-08-26T15:03:21;15.60;37.00
59973;DHT22;55298;-36.624;-64.282;2022-08-26T15:05:54;15.80;36.40
59973;DHT22;55298;-36.624;-64.282;2022-08-26T15:08:23;16.10;36.10
59973;DHT22;55298;-36.624;-64.282;2022-08-26T15:10:51;16.50;34.70
59973;DHT22;55298;-36.624;-64.282;2022-08-26T15:13:21;16.60;32.60
59973;DHT22;55298;-36.624;-64.282;2022-08-26T15:15:53;16.70;31.10
59973;DHT22;55298;-36.624;-64.282;2022-08-26T15:18:21;16.80;30.00
59973;DHT22;55298;-36.624;-64.282;2022-08-26T15:20:53;16.90;29.90
59973;DHT22;55298;-36.624;-64.282;2022-08-26T15:23:23;16.90;29.80
59973;DHT22;55298;-36.624;-64.282;2022-08-26T15:25:56;17.00;30.00
59973;DHT22;55298;-36.624;-64.282;2022-08-26T15:28:25;17.00;30.10
59973;DHT22;55298;-36.624;-64.282;2022-08-26T15:30:53;17.30;30.70
59973;DHT22;55298;-36.624;-64.282;2022-08-26T15:33:27;17.60;29.40
59973;DHT22;55298;-36.624;-64.282;2022-08-26T15:36:01;17.80;27.80
59973;DHT22;55298;-36.624;-64.282;2022-08-26T15:38:46;17.90;27.10
59973;DHT22;55298;-36.624;-64.282;2022-08-26T15:41:16;18.10;27.40
59973;DHT22;55298;-36.624;-64.282;2022-08-26T15:43:46;18.00;27.70
59973;DHT22;55298;-36.624;-64.282;2022-08-26T15:46:14;18.00;28.00
59973;DHT22;55298;-36.624;-64.282;2022-08-26T15:48:49;18.00;28.20
59973;DHT22;55298;-36.624;-64.282;2022-08-26T15:51:27;18.00;27.60
59973;DHT22;55298;-36.624;-64.282;2022-08-26T15:54:02;18.00;27.20
59973;DHT22;55298;-36.624;-64.282;2022-08-26T15:56:33;18.10;28.10
59973;DHT22;55298;-36.624;-64.282;2022-08-26T15:59:04;18.20;28.40
59973;DHT22;55298;-36.624;-64.282;2022-08-26T16:01:34;18.30;28.80
59973;DHT22;55298;-36.624;-64.282;2022-08-26T16:04:03;18.50;28.70
59973;DHT22;55298;-36.624;-64.282;2022-08-26T16:06:33;18.60;28.90
59973;DHT22;55298;-36.624;-64.282;2022-08-26T16:09:03;18.60;29.20
59973;DHT22;55298;-36.624;-64.282;2022-08-26T16:11:33;18.80;29.30
59973;DHT22;55298;-36.624;-64.282;2022-08-26T16:14:04;18.90;29.40